Terminal Aerodrome Forecast
Issued by NWS Los Angeles, CA

Home | Current Version | Previous Version | Text Only | Print | Product List | Glossary On
Versions: 1 2 3 4 5 6 7 8 9 10 11 12 13 14 15 16 17 18 19 20 21 22 23 24 25 26 27 28 29 30
000
FTUS46 KLOX 291920 AAA
TAFSMX
TAF AMD
KSMX 291920Z 2919/3018 30007KT P6SM SCT012
     FM292000 31011KT P6SM SKC
     FM300400 VRB03KT 6SM BR BKN005
     FM301000 VRB03KT 2SM BR OVC003
     FM301600 VRB03KT 4SM BR OVC006=

USA.gov is the U.S. government's official web portal to all federal, state and local government web resources and services.